Time;durP1;ratioP1;P1;durP2;ratioP2;P2;SDS_P1;SDS_P2;PMS_P1;PMS_P2;Temp;Humidity;BMP_temperature;BMP_pressure;BME280_temperature;BME280_humidity;BME280_pressure;Samples;Min_cycle;Max_cycle;Signal;HPM_P1;HPM_P2
2022/07/29 00:01:23;;;;;;;5.75;5.08;;;;;;;19.11;71.40;95769.82;1763833;80;21013;-66
2022/07/29 00:03:50;;;;;;;7.03;4.60;;;;;;;19.08;70.93;95771.31;1771834;80;20967;-66
2022/07/29 00:06:17;;;;;;;4.67;4.28;;;;;;;19.13;71.12;95772.44;1788573;80;21042;-66
2022/07/29 00:08:44;;;;;;;6.05;4.85;;;;;;;19.22;70.96;95768.80;1764277;80;21010;-66
2022/07/29 00:11:10;;;;;;;5.33;4.70;;;;;;;19.27;70.78;95764.56;1784179;80;21551;-66
2022/07/29 00:13:37;;;;;;;7.35;5.10;;;;;;;19.21;71.10;95772.91;1789881;80;21027;-66
2022/07/29 00:16:04;;;;;;;5.55;5.05;;;;;;;19.23;70.70;95767.88;1778328;80;21050;-66
2022/07/29 00:18:31;;;;;;;5.53;5.03;;;;;;;19.16;71.50;95766.92;1760158;80;21018;-66
2022/07/29 00:20:58;;;;;;;5.30;4.80;;;;;;;19.09;71.56;95764.16;1774556;80;21030;-66
2022/07/29 00:23:25;;;;;;;5.58;5.08;;;;;;;19.02;71.93;95765.80;1787686;80;21023;-66
2022/07/29 00:25:51;;;;;;;5.53;5.03;;;;;;;19.03;71.50;95766.19;1772603;80;20983;-66
2022/07/29 00:28:18;;;;;;;6.45;5.42;;;;;;;19.01;72.33;95764.05;1786484;80;21015;-66
2022/07/29 00:30:44;;;;;;;5.70;5.10;;;;;;;19.00;72.77;95762.81;1780601;80;21006;-66
2022/07/29 00:33:11;;;;;;;6.58;5.90;;;;;;;18.99;71.61;95765.93;1773720;80;20998;-66
2022/07/29 00:35:44;;;;;;;5.90;5.40;;;;;;;18.95;71.58;95757.69;1786703;80;21110;-66
2022/07/29 00:38:13;;;;;;;5.78;5.17;;;;;;;18.96;71.27;95756.73;1781725;80;21552;-66
2022/07/29 00:40:41;;;;;;;5.47;4.97;;;;;;;18.95;71.81;95757.69;1779247;80;21058;-66
2022/07/29 00:43:08;;;;;;;6.62;4.72;;;;;;;18.94;71.70;95756.41;1763750;80;21101;-66
2022/07/29 00:45:35;;;;;;;5.40;4.90;;;;;;;18.89;72.62;95756.63;1783664;80;21026;-66
2022/07/29 00:48:04;;;;;;;7.33;5.60;;;;;;;18.89;72.38;95760.64;1772281;80;21045;-66
2022/07/29 00:50:32;;;;;;;7.10;4.90;;;;;;;18.93;72.27;95751.55;1763807;80;21026;-66
2022/07/29 00:52:59;;;;;;;4.37;3.98;;;;;;;18.93;72.08;95751.55;1766546;80;21026;-66
2022/07/29 00:55:26;;;;;;;6.45;4.65;;;;;;;18.93;71.86;95748.87;1774965;80;21014;-66
2022/07/29 00:57:53;;;;;;;4.97;4.47;;;;;;;18.93;72.65;95756.89;1787853;80;21011;-66
2022/07/29 01:00:24;;;;;;;6.05;4.62;;;;;;;18.93;72.25;95754.22;1765338;80;21006;-66
2022/07/29 01:02:51;;;;;;;5.33;4.83;;;;;;;18.94;71.92;95756.41;1777240;80;21025;-66
2022/07/29 01:05:21;;;;;;;4.80;4.10;;;;;;;18.97;71.98;95758.92;1772957;80;21013;-66
2022/07/29 01:07:52;;;;;;;5.05;4.50;;;;;;;19.02;71.58;95753.77;1767559;80;21025;-66
2022/07/29 01:10:21;;;;;;;4.72;4.22;;;;;;;19.00;72.19;95751.64;1787098;80;21023;-66
2022/07/29 01:12:51;;;;;;;5.60;4.90;;;;;;;19.05;71.81;95746.07;1788510;80;21070;-66
2022/07/29 01:15:18;;;;;;;5.62;4.58;;;;;;;19.01;72.18;95742.66;1779130;80;21066;-66
2022/07/29 01:17:58;;;;;;;5.33;4.42;;;;;;;19.05;71.86;95739.38;1788693;80;21018;-66
2022/07/29 01:20:56;;;;;;;5.80;4.80;;;;;;;19.05;72.01;95734.48;1768244;80;20983;-66
2022/07/29 01:24:09;;;;;;;6.50;4.55;;;;;;;19.02;72.14;95733.72;1780409;80;21050;-66
2022/07/29 01:26:57;;;;;;;6.47;4.30;;;;;;;19.01;71.63;95731.97;1776675;80;21537;-66
2022/07/29 01:29:37;;;;;;;7.55;4.60;;;;;;;19.06;71.44;95724.20;1752777;80;21587;-66
2022/07/29 01:32:19;;;;;;;5.03;4.53;;;;;;;19.02;71.24;95716.34;1759588;80;21057;-66
2022/07/29 01:35:03;;;;;;;4.65;4.22;;;;;;;18.95;71.37;95714.91;1775263;80;21540;-66
2022/07/29 01:37:41;;;;;;;6.12;4.80;;;;;;;18.91;71.67;95718.66;1767971;80;21069;-66
2022/07/29 01:40:37;;;;;;;5.00;4.47;;;;;;;18.87;72.66;95721.08;1776016;80;21019;-66
2022/07/29 01:43:11;;;;;;;6.42;4.65;;;;;;;18.88;72.22;95715.28;1769107;80;21104;-66
2022/07/29 01:45:45;;;;;;;4.87;4.42;;;;;;;18.86;72.74;95711.81;1753482;80;21113;-66
2022/07/29 01:48:26;;;;;;;6.22;4.42;;;;;;;18.87;72.79;95710.86;1772580;80;21058;-66
2022/07/29 01:51:10;;;;;;;5.75;5.08;;;;;;;18.90;72.28;95710.70;1777690;80;21058;-66
2022/07/29 01:53:48;;;;;;;5.97;5.22;;;;;;;18.81;72.58;95716.05;1763062;80;21568;-66
2022/07/29 01:56:17;;;;;;;5.62;5.12;;;;;;;18.81;72.67;95716.05;1774893;80;21027;-66
2022/07/29 01:58:46;;;;;;;5.72;5.22;;;;;;;18.85;72.02;95717.64;1785723;80;21544;-66
2022/07/29 02:01:14;;;;;;;5.62;4.90;;;;;;;18.84;71.76;95718.56;1786919;80;21018;-66
2022/07/29 02:03:45;;;;;;;6.72;5.53;;;;;;;18.82;71.78;95716.42;1766163;80;21015;-66
2022/07/29 02:06:16;;;;;;;5.97;5.35;;;;;;;18.77;71.97;95718.46;1759944;80;21081;-66
2022/07/29 02:08:45;;;;;;;6.60;5.83;;;;;;;18.76;72.51;95722.09;1784264;80;21015;-65
2022/07/29 02:11:12;;;;;;;8.58;5.75;;;;;;;18.69;72.36;95724.63;1784374;80;21078;-66
2022/07/29 02:13:41;;;;;;;7.50;5.03;;;;;;;18.65;72.37;95717.69;1786603;80;21461;-66
2022/07/29 02:16:10;;;;;;;5.72;5.10;;;;;;;18.62;72.15;95721.84;1778099;80;21522;-66
2022/07/29 02:18:39;;;;;;;6.37;5.60;;;;;;;18.56;72.82;95723.88;1760021;80;21464;-65
2022/07/29 02:21:07;;;;;;;5.85;5.25;;;;;;;18.57;72.73;95724.73;1778065;80;21007;-66
2022/07/29 02:23:37;;;;;;;6.70;5.05;;;;;;;18.60;72.48;95718.80;1768376;80;21599;-66
2022/07/29 02:26:05;;;;;;;8.38;4.90;;;;;;;18.59;72.42;95718.37;1774427;80;21065;-65
2022/07/29 02:28:34;;;;;;;6.20;5.05;;;;;;;18.57;72.70;95725.63;1778640;80;21061;-66
2022/07/29 02:31:03;;;;;;;5.22;4.78;;;;;;;18.51;72.59;95721.03;1768941;80;21023;-66
2022/07/29 02:33:31;;;;;;;6.42;5.00;;;;;;;18.35;73.20;95721.77;1765822;80;21022;-66
2022/07/29 02:35:59;;;;;;;6.47;4.85;;;;;;;18.29;73.38;95726.52;1774986;80;21066;-66
2022/07/29 02:41:21;;;;;;;6.25;4.53;;;;;;;18.13;73.64;95723.23;1784404;80;20995;-66
2022/07/29 02:43:52;;;;;;;5.15;4.60;;;;;;;18.04;73.94;95726.34;1770618;80;21029;-66
2022/07/29 02:46:30;;;;;;;6.97;4.40;;;;;;;18.04;73.58;95728.13;1780469;80;21010;-66
2022/07/29 02:49:08;;;;;;;5.67;5.17;;;;;;;18.01;73.70;95730.47;1785687;80;21031;-65
2022/07/29 02:51:55;;;;;;;5.92;4.83;;;;;;;17.96;73.85;95731.14;1770542;80;21053;-65
2022/07/29 02:54:49;;;;;;;6.20;4.45;;;;;;;17.92;74.44;95730.91;1763248;80;21010;-65
2022/07/29 02:57:39;;;;;;;4.65;4.17;;;;;;;17.82;74.69;95737.12;1782101;80;21507;-65
2022/07/29 03:00:09;;;;;;;5.67;4.42;;;;;;;17.69;74.67;95732.77;1773738;80;21015;-65
2022/07/29 03:02:43;;;;;;;6.22;4.83;;;;;;;17.67;74.55;95734.63;1783632;80;21029;-65
2022/07/29 03:05:15;;;;;;;6.87;4.58;;;;;;;17.68;74.86;95735.02;1772916;80;21484;-66
2022/07/29 03:07:47;;;;;;;8.30;5.00;;;;;;;17.62;74.90;95739.78;1762541;80;20983;-65
2022/07/29 03:10:14;;;;;;;5.62;4.37;;;;;;;17.57;75.97;95745.78;1786956;80;21022;-65
2022/07/29 03:12:42;;;;;;;4.72;4.22;;;;;;;17.54;75.25;95744.11;1783459;80;21046;-66
2022/07/29 03:15:10;;;;;;;6.53;4.45;;;;;;;17.49;75.38;95747.45;1787276;80;21031;-65
2022/07/29 03:17:38;;;;;;;4.95;4.30;;;;;;;17.49;75.41;95743.45;1781718;80;21005;-66
2022/07/29 03:20:08;;;;;;;6.45;4.37;;;;;;;17.46;75.85;95749.78;1765391;80;21030;-65
2022/07/29 03:22:46;;;;;;;6.30;4.62;;;;;;;17.45;75.57;95744.50;1787212;80;21015;-65
2022/07/29 03:25:15;;;;;;;5.62;4.58;;;;;;;17.37;75.62;95744.84;1785479;80;21535;-66
2022/07/29 03:27:43;;;;;;;7.97;4.60;;;;;;;17.43;76.61;95743.22;1780487;80;21007;-66
2022/07/29 03:30:13;;;;;;;6.10;4.83;;;;;;;17.52;76.47;95746.84;1760159;80;21483;-65
2022/07/29 03:32:41;;;;;;;7.33;5.33;;;;;;;17.53;76.36;95745.03;1759969;80;21021;-65
2022/07/29 03:35:08;;;;;;;5.90;5.30;;;;;;;17.58;76.09;95749.70;1760025;80;21002;-65
2022/07/29 03:37:36;;;;;;;5.17;4.58;;;;;;;17.58;76.31;95752.84;1759917;80;20990;-65
2022/07/29 03:40:08;;;;;;;5.95;4.53;;;;;;;17.56;76.29;95744.89;1784698;80;21060;-65
2022/07/29 03:42:39;;;;;;;7.35;6.00;;;;;;;17.56;76.80;95745.36;1768139;80;21495;-65
2022/07/29 03:45:11;;;;;;;8.90;5.92;;;;;;;17.68;76.24;95749.69;1782322;80;21030;-65
2022/07/29 03:47:42;;;;;;;6.90;6.20;;;;;;;17.75;75.86;95751.63;1776907;80;21101;-65
2022/07/29 03:50:13;;;;;;;9.75;5.80;;;;;;;17.87;75.55;95753.80;1771298;80;21029;-66
2022/07/29 03:52:40;;;;;;;11.60;5.72;;;;;;;17.91;75.03;95755.84;1770446;80;21017;-66
2022/07/29 03:55:09;;;;;;;6.62;5.37;;;;;;;17.88;75.09;95749.31;1788358;80;21089;-65
2022/07/29 03:57:37;;;;;;;7.42;5.10;;;;;;;17.82;75.14;95749.13;1789514;80;21015;-65
2022/07/29 04:00:05;;;;;;;7.62;5.47;;;;;;;17.76;75.29;95748.02;1789615;80;21015;-65
2022/07/29 04:02:33;;;;;;;9.65;6.55;;;;;;;17.72;75.97;95747.30;1728861;79;21520;-65
2022/07/29 04:05:00;;;;;;;6.95;6.12;;;;;;;17.78;75.81;95755.49;1769320;80;21109;-66
2022/07/29 04:07:27;;;;;;;7.30;6.10;;;;;;;17.87;75.46;95754.27;1764543;80;21047;-66
2022/07/29 04:09:54;;;;;;;6.97;6.05;;;;;;;17.97;75.34;95756.92;1765160;80;21523;-66
2022/07/29 04:12:20;;;;;;;5.22;4.75;;;;;;;18.01;74.88;95755.83;1762793;80;21038;-66
2022/07/29 04:14:48;;;;;;;11.15;5.75;;;;;;;17.99;75.13;95757.70;1759959;80;21025;-66
2022/07/29 04:17:15;;;;;;;7.05;5.90;;;;;;;18.03;75.14;95755.30;1763787;80;21062;-66
2022/07/29 04:19:41;;;;;;;7.87;6.03;;;;;;;18.13;74.96;95756.61;1760058;80;21050;-65
2022/07/29 04:22:08;;;;;;;8.20;5.78;;;;;;;18.21;74.57;95759.41;1778111;80;21026;-65
2022/07/29 04:24:35;;;;;;;8.88;6.22;;;;;;;18.29;74.45;95756.76;1759865;80;21491;-65
2022/07/29 04:27:01;;;;;;;8.43;5.85;;;;;;;18.36;74.21;95750.67;1770526;80;21027;-66
2022/07/29 04:29:28;;;;;;;8.95;6.10;;;;;;;18.47;74.08;95748.38;1774634;80;21065;-65
2022/07/29 04:31:54;;;;;;;6.08;5.35;;;;;;;18.52;73.59;95751.70;1767128;80;21019;-65
2022/07/29 04:34:21;;;;;;;6.95;6.33;;;;;;;18.60;73.43;95752.20;1785685;80;21026;-66
2022/07/29 04:36:48;;;;;;;9.63;7.08;;;;;;;18.68;73.52;95745.15;1772640;80;21002;-66
2022/07/29 04:39:14;;;;;;;9.03;7.92;;;;;;;18.77;73.64;95746.08;1778561;80;21546;-66
2022/07/29 04:41:41;;;;;;;7.95;6.95;;;;;;;18.85;73.43;95749.72;1781519;80;21027;-65
2022/07/29 04:44:08;;;;;;;7.90;6.30;;;;;;;18.96;73.25;95742.50;1781963;80;21070;-66
2022/07/29 04:46:35;;;;;;;7.58;5.92;;;;;;;19.05;72.84;95743.39;1775677;80;21058;-66
2022/07/29 04:49:04;;;;;;;6.60;5.92;;;;;;;19.16;72.94;95749.06;1777798;80;21038;-66
2022/07/29 04:51:30;;;;;;;8.50;6.08;;;;;;;19.31;72.57;95739.87;1780572;80;20991;-65
2022/07/29 04:53:57;;;;;;;8.25;6.12;;;;;;;19.34;71.85;95739.72;1775191;80;21602;-66
2022/07/29 04:56:24;;;;;;;9.10;6.70;;;;;;;19.38;71.85;95742.16;1777315;80;21015;-66
2022/07/29 04:58:51;;;;;;;8.00;6.83;;;;;;;19.45;71.74;95746.71;1778445;80;20975;-66
2022/07/29 05:01:19;;;;;;;10.03;6.95;;;;;;;19.57;71.65;95745.22;1759616;80;21034;-66
2022/07/29 05:03:46;;;;;;;6.90;6.20;;;;;;;19.61;70.62;95751.69;1768525;80;21563;-66
2022/07/29 05:06:12;;;;;;;8.55;6.65;;;;;;;19.70;70.94;95750.84;1763374;80;21061;-66
2022/07/29 05:08:39;;;;;;;6.72;6.10;;;;;;;19.75;70.67;95746.97;1772682;80;21031;-66
2022/07/29 05:11:06;;;;;;;7.17;6.50;;;;;;;19.82;69.96;95756.41;1765290;80;21058;-66
2022/07/29 05:13:33;;;;;;;7.25;5.83;;;;;;;19.82;69.94;95756.41;1775829;80;21018;-66
2022/07/29 05:15:59;;;;;;;6.83;6.12;;;;;;;19.86;70.08;95757.14;1766133;80;21544;-66
2022/07/29 05:18:26;;;;;;;7.70;6.22;;;;;;;19.94;69.99;95765.63;1783938;80;21070;-66
2022/07/29 05:20:53;;;;;;;10.40;6.62;;;;;;;20.02;69.59;95753.17;1761378;80;21078;-66
2022/07/29 05:23:19;;;;;;;8.73;6.25;;;;;;;20.10;69.47;95763.84;1776526;80;21093;-66
2022/07/29 05:25:46;;;;;;;7.83;5.97;;;;;;;20.16;69.20;95759.11;1760259;80;21017;-66
2022/07/29 05:28:13;;;;;;;6.92;6.20;;;;;;;20.17;68.56;95760.38;1777307;80;21567;-66
2022/07/29 05:30:39;;;;;;;7.62;6.03;;;;;;;20.25;69.25;95763.98;1769201;80;20979;-66
2022/07/29 05:33:06;;;;;;;8.18;6.37;;;;;;;20.34;68.71;95755.94;1772598;80;21027;-66
2022/07/29 05:35:34;;;;;;;7.00;5.97;;;;;;;20.48;68.37;95751.52;1785649;80;21023;-66
2022/07/29 05:38:01;;;;;;;7.65;6.33;;;;;;;20.58;67.60;95752.39;1771760;80;21555;-66
2022/07/29 05:40:28;;;;;;;10.05;6.50;;;;;;;20.65;66.85;95751.97;1780935;80;21615;-66
2022/07/29 05:42:55;;;;;;;7.22;6.53;;;;;;;20.74;66.62;95741.22;1782748;80;21092;-67
2022/07/29 05:45:24;;;;;;;7.15;6.40;;;;;;;20.84;65.71;95742.42;1777916;80;21027;-66
2022/07/29 05:47:51;;;;;;;7.87;6.70;;;;;;;20.96;65.93;95735.02;1780210;80;21030;-66
2022/07/29 05:50:18;;;;;;;7.50;6.20;;;;;;;21.14;65.78;95731.75;1777422;80;21145;-66
2022/07/29 05:52:45;;;;;;;8.03;6.47;;;;;;;21.28;64.34;95728.73;1784409;80;21105;-66
2022/07/29 05:55:12;;;;;;;7.67;6.40;;;;;;;21.35;63.86;95727.42;1767998;80;20979;-66
2022/07/29 05:57:39;;;;;;;6.58;5.90;;;;;;;21.53;63.96;95730.38;1759900;80;21001;-66
2022/07/29 06:00:08;;;;;;;6.90;6.20;;;;;;;21.78;63.27;95734.27;1788301;80;21066;-66
2022/07/29 06:02:40;;;;;;;8.25;6.40;;;;;;;21.94;62.33;95730.16;1769475;80;20998;-67
2022/07/29 06:05:07;;;;;;;7.62;6.05;;;;;;;22.17;61.43;95728.73;1765405;80;21539;-66
2022/07/29 06:07:34;;;;;;;7.00;6.25;;;;;;;22.36;61.28;95728.01;1776670;80;21050;-66
2022/07/29 06:10:00;;;;;;;21.65;7.00;;;;;;;22.53;59.81;95725.61;1767425;80;21511;-67
2022/07/29 06:12:27;;;;;;;17.73;7.33;;;;;;;22.64;58.79;95729.80;1781661;80;21133;-66
2022/07/29 06:14:54;;;;;;;17.98;7.75;;;;;;;22.80;60.06;95732.35;1777787;80;21014;-66
2022/07/29 06:17:20;;;;;;;27.07;8.03;;;;;;;22.98;59.44;95732.16;1767462;80;21481;-66
2022/07/29 06:19:47;;;;;;;20.27;8.45;;;;;;;23.15;58.92;95735.95;1786832;80;21042;-66
2022/07/29 06:22:17;;;;;;;11.97;7.62;;;;;;;23.36;58.58;95726.94;1763968;80;21531;-66
2022/07/29 06:24:43;;;;;;;20.35;8.13;;;;;;;23.47;58.52;95731.11;1768721;80;21049;-67
2022/07/29 06:27:11;;;;;;;17.35;7.65;;;;;;;23.59;57.83;95732.61;1785088;80;21011;-66
2022/07/29 06:29:38;;;;;;;20.35;7.50;;;;;;;23.63;57.44;95726.88;1760201;80;21046;-67
2022/07/29 06:32:06;;;;;;;19.85;7.75;;;;;;;23.70;57.61;95720.59;1767629;80;21531;-66
2022/07/29 06:34:32;;;;;;;13.75;7.28;;;;;;;23.77;57.70;95730.52;1778170;80;21022;-67
2022/07/29 06:36:59;;;;;;;15.15;7.17;;;;;;;23.78;56.11;95725.00;1768778;80;21093;-67
2022/07/29 06:39:26;;;;;;;23.38;7.17;;;;;;;23.85;56.55;95720.92;1768984;80;21552;-66
2022/07/29 06:41:53;;;;;;;13.43;7.17;;;;;;;24.00;56.95;95717.64;1767620;80;20983;-66
2022/07/29 06:44:22;;;;;;;20.65;7.78;;;;;;;24.14;55.92;95720.24;1780000;80;21042;-66
2022/07/29 06:46:51;;;;;;;11.90;6.78;;;;;;;24.23;56.06;95712.47;1788102;80;21039;-66
2022/07/29 06:49:17;;;;;;;11.43;7.12;;;;;;;24.39;55.63;95718.48;1777935;80;21161;-66
2022/07/29 06:51:44;;;;;;;15.00;6.92;;;;;;;24.51;54.20;95719.48;1783951;80;21480;-66
2022/07/29 06:54:10;;;;;;;9.60;6.40;;;;;;;24.61;53.52;95712.44;1772004;80;21021;-66
2022/07/29 06:56:37;;;;;;;6.95;6.10;;;;;;;24.72;53.51;95719.29;1760020;80;21045;-66
2022/07/29 06:59:05;;;;;;;8.70;6.40;;;;;;;24.82;53.48;95710.89;1781963;80;21006;-67
2022/07/29 07:01:32;;;;;;;20.27;6.78;;;;;;;24.93;52.31;95711.44;1777809;80;21090;-67
2022/07/29 07:03:59;;;;;;;9.90;6.40;;;;;;;24.96;51.85;95709.00;1788071;80;21066;-66
2022/07/29 07:06:26;;;;;;;13.83;6.65;;;;;;;25.03;52.45;95704.38;1788362;80;21050;-67
2022/07/29 07:08:53;;;;;;;8.18;6.28;;;;;;;25.10;52.64;95706.61;1778088;80;21020;-66
2022/07/29 07:11:20;;;;;;;18.07;7.37;;;;;;;25.19;52.79;95707.32;1778396;80;21456;-66
2022/07/29 07:13:47;;;;;;;8.20;6.05;;;;;;;25.24;52.27;95708.69;1760135;80;21053;-66
2022/07/29 07:16:13;;;;;;;6.87;6.10;;;;;;;25.32;52.97;95712.66;1759930;80;20987;-66
2022/07/29 07:18:40;;;;;;;9.68;6.78;;;;;;;25.43;52.20;95712.73;1785557;80;20983;-66
2022/07/29 07:21:07;;;;;;;7.92;6.70;;;;;;;25.49;52.03;95716.30;1784833;80;21026;-66
2022/07/29 07:23:33;;;;;;;9.05;6.80;;;;;;;25.51;51.34;95722.45;1764310;80;21082;-66
2022/07/29 07:26:00;;;;;;;9.70;7.15;;;;;;;25.47;51.49;95719.59;1765320;80;21516;-66
2022/07/29 07:28:27;;;;;;;8.50;6.90;;;;;;;25.35;50.79;95718.71;1768673;80;21086;-67
2022/07/29 07:30:53;;;;;;;7.47;6.85;;;;;;;25.30;51.51;95718.20;1776134;80;21054;-66
2022/07/29 07:33:20;;;;;;;10.48;6.87;;;;;;;25.39;51.97;95712.58;1778047;80;21516;-66
2022/07/29 07:35:47;;;;;;;8.53;6.28;;;;;;;25.64;51.89;95711.56;1767648;80;21006;-66
2022/07/29 07:38:14;;;;;;;9.78;6.80;;;;;;;25.87;52.11;95722.84;1777714;80;21037;-66
2022/07/29 07:40:41;;;;;;;7.47;6.50;;;;;;;26.11;51.71;95721.44;1787240;80;21019;-66
2022/07/29 07:43:08;;;;;;;6.70;6.10;;;;;;;26.32;51.16;95713.45;1791176;80;21591;-66
2022/07/29 07:45:36;;;;;;;8.63;5.78;;;;;;;26.52;50.82;95711.91;1786899;80;21019;-66
2022/07/29 07:48:04;;;;;;;7.35;6.05;;;;;;;26.78;50.24;95712.98;1760107;80;20967;-66
2022/07/29 07:50:31;;;;;;;6.47;5.87;;;;;;;27.04;50.41;95714.05;1760169;80;21013;-66
2022/07/29 07:52:58;;;;;;;7.25;5.85;;;;;;;27.21;49.62;95712.20;1782842;80;21038;-66
2022/07/29 07:55:25;;;;;;;6.22;5.62;;;;;;;27.29;49.01;95708.38;1778056;80;21026;-66
2022/07/29 07:57:53;;;;;;;7.12;6.20;;;;;;;27.39;49.09;95713.39;1787066;80;21088;-66
2022/07/29 08:00:20;;;;;;;7.45;5.87;;;;;;;27.45;47.55;95709.80;1770684;80;21030;-66
2022/07/29 08:02:47;;;;;;;9.43;6.45;;;;;;;27.55;48.69;95707.53;1788345;80;21050;-66
2022/07/29 08:05:16;;;;;;;7.53;6.83;;;;;;;27.72;46.50;95708.82;1788304;80;21046;-66
2022/07/29 08:07:45;;;;;;;8.78;7.55;;;;;;;27.69;46.57;95716.34;1778689;80;21026;-66
2022/07/29 08:10:51;;;;;;;7.28;6.58;;;;;;;27.82;46.80;95713.85;1786404;80;21027;-66
2022/07/29 08:12:44;;;;;;;6.97;6.22;;;;;;;28.05;46.47;95710.52;1774153;80;21019;-66
2022/07/29 08:15:10;;;;;;;6.60;5.97;;;;;;;28.24;45.97;95715.69;1767935;80;21141;-66
2022/07/29 08:17:37;;;;;;;6.58;5.95;;;;;;;28.35;45.06;95718.34;1787937;80;21540;-66
2022/07/29 08:20:05;;;;;;;7.42;6.35;;;;;;;28.39;43.24;95714.34;1784800;80;21023;-66
2022/07/29 08:22:32;;;;;;;7.40;5.83;;;;;;;28.45;43.69;95717.04;1764831;80;21974;-66
2022/07/29 08:24:58;;;;;;;6.85;6.08;;;;;;;28.62;43.65;95718.27;1779194;80;20971;-67
2022/07/29 08:27:26;;;;;;;11.10;6.22;;;;;;;28.64;41.94;95719.85;1771635;80;21507;-66
2022/07/29 08:29:53;;;;;;;6.42;5.70;;;;;;;28.37;42.63;95727.18;1786518;80;21025;-66
2022/07/29 08:32:19;;;;;;;7.05;6.22;;;;;;;28.53;42.94;95722.67;1780110;79;21023;-66
2022/07/29 08:34:46;;;;;;;9.20;6.80;;;;;;;28.69;41.96;95720.80;1788816;80;21023;-67
2022/07/29 08:37:13;;;;;;;7.45;6.75;;;;;;;28.82;42.87;95716.49;1788573;80;20987;-66
2022/07/29 08:39:40;;;;;;;7.83;7.10;;;;;;;28.78;42.01;95708.25;1787849;80;21023;-66
2022/07/29 08:42:06;;;;;;;7.15;6.15;;;;;;;28.72;42.55;95715.09;1784575;80;21493;-66
2022/07/29 08:44:33;;;;;;;7.30;6.22;;;;;;;28.76;43.05;95708.41;1777995;80;21117;-66
2022/07/29 08:47:00;;;;;;;7.08;6.37;;;;;;;28.95;43.13;95706.23;1774351;80;21034;-66
2022/07/29 08:49:27;;;;;;;11.10;7.00;;;;;;;29.09;42.90;95709.11;1759818;80;21046;-66
2022/07/29 08:51:55;;;;;;;7.42;5.90;;;;;;;29.15;42.71;95707.18;1763839;80;21553;-66
2022/07/29 08:54:24;;;;;;;7.60;6.53;;;;;;;29.19;42.73;95704.55;1763729;80;21014;-66
2022/07/29 08:56:51;;;;;;;8.85;7.05;;;;;;;29.30;42.91;95704.41;1778292;80;21026;-66
2022/07/29 08:59:22;;;;;;;8.20;6.33;;;;;;;29.53;41.84;95698.24;1765619;80;21047;-66
2022/07/29 09:01:51;;;;;;;7.37;6.50;;;;;;;29.62;41.02;95695.66;1783297;80;21042;-66
2022/07/29 09:04:20;;;;;;;7.00;6.30;;;;;;;29.65;41.33;95694.89;1772718;80;21519;-66
2022/07/29 09:06:50;;;;;;;7.03;6.33;;;;;;;29.74;41.36;95699.98;1788445;80;21050;-67
2022/07/29 09:09:17;;;;;;;7.50;6.72;;;;;;;29.69;40.43;95700.92;1778204;80;21061;-67
2022/07/29 09:11:44;;;;;;;8.33;6.75;;;;;;;29.68;40.63;95705.48;1766129;80;21520;-67
2022/07/29 09:14:14;;;;;;;6.85;6.15;;;;;;;29.83;40.22;95696.89;1782223;80;21019;-67
2022/07/29 09:16:51;;;;;;;6.92;5.92;;;;;;;30.01;39.79;95703.30;1770166;80;21010;-67
2022/07/29 09:19:31;;;;;;;8.25;6.70;;;;;;;30.17;39.67;95698.14;1781005;80;21042;-67
2022/07/29 09:22:01;;;;;;;8.25;6.47;;;;;;;30.29;39.03;95692.06;1778081;80;21610;-67
2022/07/29 09:24:44;;;;;;;7.53;6.20;;;;;;;30.32;38.93;95689.05;1788486;80;21007;-67
2022/07/29 09:27:26;;;;;;;6.75;6.15;;;;;;;30.43;38.73;95696.17;1769211;80;21062;-67
2022/07/29 09:30:06;;;;;;;6.95;6.25;;;;;;;30.66;38.75;95690.35;1779459;80;21054;-67
2022/07/29 09:32:37;;;;;;;6.42;5.83;;;;;;;30.90;38.22;95693.95;1777818;80;21025;-66
2022/07/29 09:35:19;;;;;;;10.50;6.90;;;;;;;30.87;36.66;95690.14;1758277;80;21023;-67
2022/07/29 09:37:47;;;;;;;6.87;6.17;;;;;;;30.45;37.76;95688.71;1780329;80;21540;-66
2022/07/29 09:40:19;;;;;;;6.53;5.92;;;;;;;30.36;37.47;95684.15;1771460;80;21062;-66
2022/07/29 09:42:46;;;;;;;7.45;6.75;;;;;;;30.41;37.60;95685.41;1759710;80;21022;-66
2022/07/29 09:45:27;;;;;;;7.05;6.35;;;;;;;30.47;37.94;95681.27;1766234;80;21010;-66
2022/07/29 09:47:55;;;;;;;7.30;6.58;;;;;;;30.35;37.66;95681.94;1771045;80;21070;-66
2022/07/29 09:50:25;;;;;;;6.87;6.28;;;;;;;30.16;37.76;95680.58;1788175;80;21067;-67
2022/07/29 09:52:56;;;;;;;7.90;7.10;;;;;;;29.95;38.44;95669.89;1771162;80;21013;-67
2022/07/29 09:55:23;;;;;;;8.05;6.22;;;;;;;29.92;38.32;95666.97;1781296;80;21102;-67
2022/07/29 09:57:50;;;;;;;7.83;6.47;;;;;;;29.89;38.55;95667.77;1767444;80;21070;-66
2022/07/29 10:00:22;;;;;;;6.60;6.00;;;;;;;29.88;38.88;95670.11;1788216;80;21698;-66
2022/07/29 10:02:49;;;;;;;7.60;6.90;;;;;;;29.72;38.94;95663.41;1781500;80;21030;-66
2022/07/29 10:05:25;;;;;;;7.03;6.33;;;;;;;29.66;38.50;95664.47;1782547;80;21019;-66
2022/07/29 10:07:54;;;;;;;7.37;6.05;;;;;;;29.61;38.81;95659.46;1765694;80;20990;-66
2022/07/29 10:10:30;;;;;;;7.12;6.17;;;;;;;29.46;38.51;95661.75;1789319;80;21038;-66
2022/07/29 10:13:04;;;;;;;9.58;7.03;;;;;;;29.45;38.88;95654.58;1762451;80;21018;-66
2022/07/29 10:15:38;;;;;;;7.30;6.60;;;;;;;29.47;38.93;95651.22;1781122;80;20998;-66
2022/07/29 10:18:07;;;;;;;8.00;7.28;;;;;;;29.46;39.30;95644.08;1787018;80;21046;-66
2022/07/29 10:20:35;;;;;;;7.40;5.80;;;;;;;29.46;39.53;95649.52;1786584;80;21011;-66
2022/07/29 10:23:02;;;;;;;8.38;6.33;;;;;;;29.37;39.81;95646.80;1779693;80;21027;-66
2022/07/29 10:25:29;;;;;;;8.80;6.75;;;;;;;29.37;40.13;95643.56;1777661;80;20988;-66
2022/07/29 10:27:57;;;;;;;6.45;5.85;;;;;;;29.38;40.44;95641.20;1764216;80;21492;-66
2022/07/29 10:30:25;;;;;;;7.83;6.37;;;;;;;29.22;40.34;95644.48;1772943;80;21152;-66
2022/07/29 10:33:18;;;;;;;7.20;6.25;;;;;;;28.99;40.74;95638.42;1774235;80;21041;-67
2022/07/29 10:36:08;;;;;;;6.75;6.15;;;;;;;28.85;41.27;95632.02;1778296;80;21012;-66
2022/07/29 10:39:02;;;;;;;6.78;6.20;;;;;;;28.78;41.29;95632.22;1767837;80;21078;-66
2022/07/29 10:41:58;;;;;;;6.87;6.20;;;;;;;28.63;41.21;95633.98;1763577;80;21045;-67
2022/07/29 10:44:27;;;;;;;7.12;6.22;;;;;;;28.64;41.62;95643.84;1775175;80;21496;-66
2022/07/29 10:46:54;;;;;;;6.67;5.65;;;;;;;28.55;41.42;95643.80;1783292;80;21598;-66
2022/07/29 10:49:26;;;;;;;9.35;6.03;;;;;;;28.47;41.37;95650.77;1767730;80;21029;-66
2022/07/29 10:52:09;;;;;;;6.55;5.85;;;;;;;28.43;41.47;95649.81;1790333;80;21022;-66
2022/07/29 10:54:39;;;;;;;;;;;;;;;28.37;41.74;95650.34;1787868;80;21007;-67
2022/07/29 10:57:28;;;;;;;9.93;5.60;;;;;;;28.31;41.89;95660.40;1782002;80;20390;-66
2022/07/29 11:00:15;;;;;;;9.95;6.33;;;;;;;28.22;41.82;95660.22;1780983;80;21016;-66
2022/07/29 11:02:44;;;;;;;7.20;6.15;;;;;;;28.11;42.04;95656.72;1769150;80;21027;-66
2022/07/29 11:05:17;;;;;;;6.67;5.92;;;;;;;28.08;42.41;95659.70;1769121;80;21021;-66
2022/07/29 11:08:18;;;;;;;6.78;6.10;;;;;;;28.04;42.55;95662.66;1777501;80;21011;-66
2022/07/29 11:10:45;;;;;;;8.18;6.45;;;;;;;28.03;42.62;95666.89;1785374;80;21486;-66
2022/07/29 11:13:12;;;;;;;6.90;6.00;;;;;;;27.99;42.58;95672.20;1773430;80;21026;-66
2022/07/29 11:15:58;;;;;;;8.80;6.37;;;;;;;27.90;42.68;95673.88;1774488;80;21037;-66
2022/07/29 11:18:25;;;;;;;8.40;6.67;;;;;;;27.85;42.92;95676.62;1775070;80;21031;-67
2022/07/29 11:20:54;;;;;;;7.12;6.42;;;;;;;27.78;43.35;95674.39;1774239;80;21117;-66
2022/07/29 11:23:31;;;;;;;6.50;5.90;;;;;;;27.78;43.41;95663.55;1760177;80;21018;-66
2022/07/29 11:26:21;;;;;;;8.10;6.37;;;;;;;27.80;43.61;95658.01;1763808;80;20991;-66
2022/07/29 11:28:56;;;;;;;7.20;6.50;;;;;;;27.87;43.53;95644.79;1788445;80;21081;-67
2022/07/29 11:31:48;;;;;;;7.37;6.67;;;;;;;28.00;43.80;95639.54;1781323;80;21018;-66
2022/07/29 11:34:32;;;;;;;7.00;6.25;;;;;;;28.17;43.75;95642.13;1771069;80;21498;-66
2022/07/29 11:37:13;;;;;;;7.95;6.75;;;;;;;28.30;43.66;95646.45;1734747;80;21003;-66
2022/07/29 11:39:46;;;;;;;7.45;6.75;;;;;;;28.41;43.21;95654.01;1788407;80;21019;-67
2022/07/29 11:42:25;;;;;;;;;;;;;;;28.49;43.31;95658.78;1781769;80;21026;-66
2022/07/29 11:45:00;;;;;;;11.22;7.00;;;;;;;28.50;43.00;95669.14;1782982;80;20398;-67
2022/07/29 11:47:29;;;;;;;15.48;7.92;;;;;;;28.27;42.51;95682.85;1771063;80;21016;-66
2022/07/29 11:49:58;;;;;;;15.38;10.13;;;;;;;28.14;42.74;95681.71;1768332;80;20995;-66